Time;durP1;ratioP1;P1;durP2;ratioP2;P2;SDS_P1;SDS_P2;PMS_P1;PMS_P2;Temp;Humidity;BMP_temperature;BMP_pressure;BME280_temperature;BME280_humidity;BME280_pressure;Samples;Min_cycle;Max_cycle;Signal;HPM_P1;HPM_P2
2023/07/09 00:00:33;;;;;;;8.60;3.63;;;23.00;99.90;;;;;;12499867;28;20050;-35
2023/07/09 00:06:35;;;;;;;8.65;3.67;;;22.50;99.90;;;;;;12508970;28;20053;-35
2023/07/09 00:12:37;;;;;;;5.85;3.88;;;22.50;99.90;;;;;;12525951;28;20079;-35
2023/07/09 00:18:39;;;;;;;4.85;3.58;;;22.50;99.90;;;;;;12512729;28;20266;-35
2023/07/09 00:24:42;;;;;;;6.15;3.70;;;22.20;99.90;;;;;;12504572;28;20049;-35
2023/07/09 00:30:45;;;;;;;8.57;3.40;;;22.10;99.90;;;;;;12453454;28;20076;-34
2023/07/09 00:36:47;;;;;;;4.80;3.92;;;22.30;99.90;;;;;;12495299;28;20131;-35
2023/07/09 00:42:55;;;;;;;5.63;4.03;;;22.30;99.90;;;;;;12454844;28;20051;-35
2023/07/09 00:49:05;;;;;;;7.22;3.97;;;22.30;99.90;;;;;;12489905;28;20068;-34
2023/07/09 00:55:13;;;;;;;6.53;3.47;;;21.90;99.90;;;;;;12470408;28;20116;-35
2023/07/09 01:01:18;;;;;;;7.28;3.92;;;21.80;99.90;;;;;;12471673;28;20046;-35
2023/07/09 01:07:21;;;;;;;6.30;4.15;;;21.70;99.90;;;;;;12479424;28;20397;-35
2023/07/09 01:13:26;;;;;;;5.77;3.57;;;21.50;99.90;;;;;;12462217;28;20459;-34
2023/07/09 01:19:30;;;;;;;6.45;4.20;;;21.70;99.90;;;;;;12473945;28;20296;-35
2023/07/09 01:25:32;;;;;;;5.18;3.80;;;21.50;99.90;;;;;;12457172;28;20052;-34
2023/07/09 01:31:35;;;;;;;9.63;4.32;;;21.50;99.90;;;;;;12533468;28;20045;-35
2023/07/09 01:37:38;;;;;;;6.13;4.10;;;21.20;99.90;;;;;;12516595;28;20192;-34
2023/07/09 01:43:41;;;;;;;7.00;3.60;;;21.20;99.90;;;;;;12514051;28;20550;-34
2023/07/09 01:49:46;;;;;;;;;;;21.30;99.90;;;;;;12513232;28;20045;-35
2023/07/09 01:55:48;;;;;;;8.70;3.75;;;21.30;99.90;;;;;;12489128;28;19966;-34
2023/07/09 02:01:53;;;;;;;5.97;4.00;;;21.30;99.90;;;;;;12491805;28;20045;-34
2023/07/09 02:07:55;;;;;;;6.43;4.30;;;21.10;99.90;;;;;;12500255;28;20062;-34
2023/07/09 02:13:57;;;;;;;7.05;4.05;;;21.10;99.90;;;;;;12542449;28;20044;-35
2023/07/09 02:19:59;;;;;;;5.97;4.05;;;21.00;99.90;;;;;;12520880;28;20071;-35
2023/07/09 02:26:00;;;;;;;9.63;3.80;;;20.90;99.90;;;;;;12529429;28;20049;-34
2023/07/09 02:32:03;;;;;;;5.32;3.75;;;21.00;99.90;;;;;;12462664;28;20409;-34
2023/07/09 02:38:05;;;;;;;7.13;3.97;;;20.90;99.90;;;;;;12492210;28;20072;-34
2023/07/09 02:44:07;;;;;;;6.22;3.80;;;20.80;99.90;;;;;;12490890;28;20049;-34
2023/07/09 02:50:09;;;;;;;7.80;3.70;;;20.60;99.90;;;;;;12513010;28;20053;-34
2023/07/09 02:56:11;;;;;;;5.60;3.50;;;20.50;99.90;;;;;;12513249;28;20057;-34
2023/07/09 03:02:14;;;;;;;6.85;3.88;;;20.40;99.90;;;;;;12490935;28;20047;-35
2023/07/09 03:08:15;;;;;;;4.88;3.47;;;20.40;99.90;;;;;;12489737;28;20049;-34
2023/07/09 03:14:17;;;;;;;9.02;3.58;;;20.50;99.90;;;;;;12487752;28;20041;-34
2023/07/09 03:20:19;;;;;;;5.32;3.75;;;20.30;99.90;;;;;;12487282;28;20505;-34
2023/07/09 03:26:21;;;;;;;5.22;3.22;;;20.30;99.90;;;;;;12495392;28;20079;-34
2023/07/09 03:32:23;;;;;;;7.43;3.70;;;20.20;99.90;;;;;;12524368;28;20049;-34
2023/07/09 03:38:25;;;;;;;6.20;3.85;;;20.00;99.90;;;;;;12528908;28;20049;-34
2023/07/09 03:44:27;;;;;;;6.47;4.05;;;20.20;99.90;;;;;;12511851;28;20037;-34
2023/07/09 03:50:29;;;;;;;6.32;3.33;;;20.30;99.90;;;;;;12520879;28;20165;-34
2023/07/09 03:56:31;;;;;;;7.85;4.03;;;20.40;99.90;;;;;;12517273;28;20049;-34
2023/07/09 04:02:33;;;;;;;6.72;3.60;;;20.30;99.90;;;;;;12502041;28;20485;-35
2023/07/09 04:08:34;;;;;;;4.45;3.35;;;20.30;99.90;;;;;;12522615;28;20071;-33
2023/07/09 04:14:37;;;;;;;5.20;3.15;;;20.20;99.90;;;;;;12512477;28;20334;-35
2023/07/09 04:20:38;;;;;;;6.43;3.50;;;21.20;99.90;;;;;;12514083;28;21547;-34
2023/07/09 04:26:40;;;;;;;6.20;3.97;;;22.20;99.90;;;;;;12489104;28;20068;-34
2023/07/09 04:32:44;;;;;;;6.20;3.78;;;22.00;99.90;;;;;;12468124;28;20088;-34
2023/07/09 04:38:46;;;;;;;4.30;3.42;;;21.80;99.90;;;;;;12484988;28;20052;-34
2023/07/09 04:44:47;;;;;;;7.70;3.90;;;21.90;99.90;;;;;;12472640;28;20077;-34
2023/07/09 04:50:50;;;;;;;6.32;3.95;;;22.40;99.90;;;;;;12462693;28;20053;-34
2023/07/09 04:56:52;;;;;;;6.88;4.05;;;22.40;99.90;;;;;;12470386;28;20111;-35
2023/07/09 05:02:55;;;;;;;8.07;4.07;;;22.30;99.90;;;;;;12483195;28;20056;-33
2023/07/09 05:08:57;;;;;;;7.18;4.47;;;22.10;99.90;;;;;;12476984;28;20057;-34
2023/07/09 05:14:59;;;;;;;7.47;5.20;;;21.80;99.90;;;;;;12441716;28;20045;-34
2023/07/09 05:21:01;;;;;;;10.00;5.10;;;21.60;99.90;;;;;;12482534;28;20408;-34
2023/07/09 05:27:03;;;;;;;7.95;5.03;;;21.40;99.90;;;;;;12475734;28;20057;-34
2023/07/09 05:33:05;;;;;;;7.13;4.60;;;21.40;99.90;;;;;;12525789;28;20423;-34
2023/07/09 05:39:07;;;;;;;7.32;4.82;;;21.20;99.90;;;;;;12508678;28;20053;-35
2023/07/09 05:45:10;;;;;;;9.32;4.45;;;21.40;99.90;;;;;;12499724;28;20433;-34
2023/07/09 05:51:12;;;;;;;8.15;4.63;;;21.50;99.90;;;;;;12517424;28;20072;-34
2023/07/09 05:57:13;;;;;;;7.03;4.43;;;21.70;99.90;;;;;;12521616;28;20057;-34
2023/07/09 06:03:15;;;;;;;8.38;4.65;;;21.80;99.90;;;;;;12515127;28;20494;-35
2023/07/09 06:09:18;;;;;;;6.95;4.65;;;21.80;99.90;;;;;;12485261;28;20049;-34
2023/07/09 06:15:20;;;;;;;8.38;4.90;;;21.80;99.90;;;;;;12487050;28;20045;-34
2023/07/09 06:21:21;;;;;;;6.65;4.55;;;21.90;99.90;;;;;;12510933;28;20126;-35
2023/07/09 06:27:23;;;;;;;6.85;4.30;;;22.20;99.90;;;;;;12463670;28;20091;-35
2023/07/09 06:33:26;;;;;;;6.05;4.05;;;22.40;99.90;;;;;;12479301;28;20052;-35
2023/07/09 06:39:29;;;;;;;8.80;4.53;;;22.60;99.90;;;;;;12444493;28;20053;-35
2023/07/09 06:45:31;;;;;;;7.57;4.45;;;22.80;99.90;;;;;;12482488;28;20417;-35
2023/07/09 06:51:34;;;;;;;5.53;3.85;;;22.90;99.90;;;;;;12477482;28;20041;-35
2023/07/09 06:57:36;;;;;;;6.68;4.35;;;23.20;99.90;;;;;;12485236;28;20060;-35
2023/07/09 07:03:39;;;;;;;6.43;3.93;;;23.30;99.90;;;;;;12499479;28;20052;-35
2023/07/09 07:09:40;;;;;;;9.83;4.57;;;23.60;99.90;;;;;;12490135;28;20084;-35
2023/07/09 07:15:49;;;;;;;6.22;3.55;;;23.70;99.90;;;;;;12487369;28;20088;-35
2023/07/09 07:21:51;;;;;;;7.75;4.22;;;23.90;99.90;;;;;;12494710;28;20079;-35
2023/07/09 07:27:53;;;;;;;6.00;4.15;;;23.70;99.90;;;;;;12492938;28;20203;-35
2023/07/09 07:33:55;;;;;;;10.57;4.38;;;23.90;99.90;;;;;;12521152;28;20056;-35
2023/07/09 07:39:57;;;;;;;8.70;4.57;;;23.90;99.90;;;;;;12520595;28;20171;-34
2023/07/09 07:45:59;;;;;;;6.57;4.03;;;24.00;99.90;;;;;;12505322;28;20045;-35
2023/07/09 07:52:03;;;;;;;5.72;3.95;;;24.20;99.90;;;;;;12517934;28;20052;-35
2023/07/09 07:58:05;;;;;;;7.40;3.97;;;24.30;99.90;;;;;;12500300;28;20052;-35
2023/07/09 08:04:07;;;;;;;6.03;3.72;;;24.50;99.90;;;;;;12523518;28;20472;-35
2023/07/09 08:10:09;;;;;;;7.20;4.32;;;24.60;99.90;;;;;;12495645;28;20106;-35
2023/07/09 08:16:14;;;;;;;6.63;4.23;;;24.80;99.90;;;;;;12503095;28;20045;-35
2023/07/09 08:22:21;;;;;;;6.57;4.13;;;25.00;99.90;;;;;;12511369;28;20060;-35
2023/07/09 08:28:23;;;;;;;6.53;4.53;;;25.20;99.90;;;;;;12473122;28;20053;-35
2023/07/09 08:34:25;;;;;;;7.43;4.30;;;25.40;99.90;;;;;;12479978;28;20412;-35
2023/07/09 08:40:27;;;;;;;8.50;4.20;;;25.70;99.90;;;;;;12473678;28;20045;-35
2023/07/09 08:46:48;;;;;;;7.67;4.43;;;26.10;99.90;;;;;;12461424;28;20061;-35
2023/07/09 08:52:52;;;;;;;7.78;3.58;;;26.30;99.90;;;;;;12480115;28;20056;-35
2023/07/09 08:58:58;;;;;;;5.82;3.75;;;26.50;99.90;;;;;;12477640;28;20077;-35
2023/07/09 09:05:02;;;;;;;5.00;3.70;;;26.90;99.90;;;;;;12487195;28;20037;-36
2023/07/09 09:11:21;;;;;;;4.85;3.60;;;27.00;99.90;;;;;;12470675;28;20061;-35
2023/07/09 09:17:26;;;;;;;8.75;3.80;;;27.30;99.90;;;;;;12464359;28;20095;-36
2023/07/09 09:23:39;;;;;;;6.68;3.25;;;27.70;99.90;;;;;;12484606;28;20037;-35
2023/07/09 09:29:41;;;;;;;;;;;28.00;99.90;;;;;;12508991;28;20122;-34
2023/07/09 09:35:44;;;;;;;9.25;4.10;;;28.40;99.90;;;;;;12522160;28;20894;-36
2023/07/09 09:41:47;;;;;;;4.78;3.40;;;28.60;99.90;;;;;;12533868;28;20478;-36
2023/07/09 09:47:49;;;;;;;5.78;3.80;;;29.10;99.90;;;;;;12513525;28;20076;-36
2023/07/09 09:53:57;;;;;;;7.20;3.80;;;29.30;99.90;;;;;;12502986;28;20090;-36
2023/07/09 09:59:58;;;;;;;7.32;3.33;;;29.70;99.90;;;;;;12496227;28;20405;-36
2023/07/09 10:06:05;;;;;;;;;;;30.00;99.90;;;;;;12520331;28;20057;-36
2023/07/09 10:12:17;;;;;;;7.80;3.65;;;30.40;99.90;;;;;;12506547;28;19927;-36
2023/07/09 10:18:43;;;;;;;6.85;3.85;;;30.80;99.90;;;;;;12511130;28;20045;-36
2023/07/09 10:25:13;;;;;;;6.50;4.15;;;30.80;99.90;;;;;;12499030;28;20406;-35
2023/07/09 10:31:53;;;;;;;7.38;4.18;;;30.80;99.90;;;;;;12477794;28;20106;-35
2023/07/09 10:38:10;;;;;;;6.95;3.53;;;31.00;99.90;;;;;;12418930;28;20053;-36
2023/07/09 10:44:48;;;;;;;9.02;4.20;;;31.20;99.90;;;;;;12459285;28;20134;-35
2023/07/09 10:50:53;;;;;;;7.03;3.63;;;31.30;99.90;;;;;;12438662;28;20065;-35
2023/07/09 10:57:17;;;;;;;6.50;3.80;;;31.70;99.90;;;;;;12486314;28;20464;-36
2023/07/09 11:03:26;;;;;;;9.68;3.42;;;31.70;99.90;;;;;;12498712;28;20049;-35
2023/07/09 11:09:35;;;;;;;8.23;3.90;;;32.10;99.90;;;;;;12480849;28;20540;-36
2023/07/09 11:15:42;;;;;;;12.57;4.25;;;32.40;99.90;;;;;;12475352;28;20069;-36
2023/07/09 11:22:05;;;;;;;5.78;3.30;;;32.30;99.90;;;;;;12483393;28;20087;-36
2023/07/09 11:28:07;;;;;;;5.75;3.90;;;32.50;99.90;;;;;;12490130;28;20481;-36
2023/07/09 11:34:13;;;;;;;7.10;4.18;;;32.70;99.90;;;;;;12504512;28;20056;-36
2023/07/09 11:40:18;;;;;;;9.77;3.40;;;32.50;99.90;;;;;;12517533;28;20053;-36
2023/07/09 11:46:26;;;;;;;8.88;3.92;;;32.60;99.90;;;;;;12504124;28;20044;-35
2023/07/09 11:52:35;;;;;;;5.50;3.90;;;32.30;99.90;;;;;;12513810;28;20041;-36
2023/07/09 11:58:48;;;;;;;11.75;4.60;;;32.30;99.90;;;;;;12511006;28;20041;-36
2023/07/09 12:04:51;;;;;;;7.68;4.47;;;32.40;99.90;;;;;;12532534;28;20156;-36
2023/07/09 12:10:53;;;;;;;9.15;4.60;;;32.50;99.90;;;;;;12509747;28;20412;-36
2023/07/09 12:16:55;;;;;;;8.23;3.95;;;32.70;99.90;;;;;;12528361;28;20425;-36
2023/07/09 12:22:57;;;;;;;;;;;32.70;99.90;;;;;;12528877;28;20087;-36
2023/07/09 12:29:00;;;;;;;8.82;4.82;;;32.40;99.90;;;;;;12493365;28;19931;-36
2023/07/09 12:35:03;;;;;;;10.27;4.85;;;32.50;99.90;;;;;;12510807;28;20057;-36
2023/07/09 12:41:06;;;;;;;6.43;4.15;;;32.40;99.90;;;;;;12498219;28;20045;-36
2023/07/09 12:47:14;;;;;;;6.28;4.35;;;32.40;99.90;;;;;;12502032;28;20080;-36
2023/07/09 12:53:20;;;;;;;7.93;4.05;;;32.60;99.90;;;;;;12529946;28;20386;-36
2023/07/09 12:59:25;;;;;;;11.73;5.05;;;32.40;99.90;;;;;;12540105;28;20056;-36
2023/07/09 13:05:28;;;;;;;5.63;3.85;;;32.50;99.90;;;;;;12544640;28;20037;-36
2023/07/09 13:11:36;;;;;;;10.80;4.57;;;32.60;99.90;;;;;;12513637;28;20147;-36
2023/07/09 13:17:42;;;;;;;8.77;4.20;;;32.50;99.90;;;;;;12515766;28;20059;-36
2023/07/09 13:23:44;;;;;;;6.70;4.20;;;32.40;99.90;;;;;;12515817;28;20056;-36
2023/07/09 13:29:46;;;;;;;6.93;4.45;;;32.50;99.90;;;;;;12493326;28;20077;-36
2023/07/09 13:35:49;;;;;;;10.20;4.82;;;32.50;99.90;;;;;;12522437;28;20517;-36
2023/07/09 13:41:53;;;;;;;8.98;4.60;;;32.50;99.90;;;;;;12514123;28;20053;-36
2023/07/09 13:47:55;;;;;;;9.13;4.60;;;32.40;99.90;;;;;;12508348;28;20081;-36
2023/07/09 13:53:59;;;;;;;9.13;5.30;;;32.50;99.90;;;;;;12505182;28;20082;-36
2023/07/09 14:00:01;;;;;;;8.75;4.57;;;32.50;99.90;;;;;;12514222;28;20116;-36
2023/07/09 14:06:03;;;;;;;6.50;4.70;;;32.40;99.90;;;;;;12523167;28;20072;-36
2023/07/09 14:12:08;;;;;;;9.10;5.50;;;32.50;99.90;;;;;;12511040;28;20063;-36
2023/07/09 14:18:16;;;;;;;10.63;5.05;;;32.40;99.90;;;;;;12522141;28;20033;-36
2023/07/09 14:24:23;;;;;;;9.65;5.30;;;32.20;99.90;;;;;;12507095;28;20038;-36
2023/07/09 14:30:25;;;;;;;10.80;5.03;;;32.10;99.90;;;;;;12524601;28;20416;-36
2023/07/09 14:36:30;;;;;;;10.10;5.00;;;32.00;99.90;;;;;;12533003;28;20053;-36
2023/07/09 14:42:32;;;;;;;;;;;32.10;99.90;;;;;;12527674;28;20524;-36
2023/07/09 14:48:33;;;;;;;10.35;5.38;;;32.20;99.90;;;;;;12513455;28;19964;-36
2023/07/09 14:54:36;;;;;;;6.90;4.95;;;32.10;99.90;;;;;;12514329;28;20045;-35
2023/07/09 15:00:40;;;;;;;7.97;5.28;;;32.00;99.90;;;;;;12525810;28;20048;-36
2023/07/09 15:06:42;;;;;;;10.45;5.20;;;32.10;99.90;;;;;;12528806;28;20045;-36
2023/07/09 15:12:46;;;;;;;7.38;5.25;;;31.80;99.90;;;;;;12527660;28;20060;-36
2023/07/09 15:18:47;;;;;;;8.85;5.32;;;31.70;99.90;;;;;;12521838;28;20044;-35
2023/07/09 15:24:49;;;;;;;13.45;5.57;;;31.40;99.90;;;;;;12507955;28;20064;-36
2023/07/09 15:30:51;;;;;;;;;;;31.10;99.90;;;;;;12528391;28;20061;-36
2023/07/09 15:36:54;;;;;;;9.93;5.05;;;30.90;99.90;;;;;;12514559;28;19932;-35
2023/07/09 15:43:05;;;;;;;10.23;5.20;;;30.90;99.90;;;;;;12518854;28;20049;-36
2023/07/09 15:49:10;;;;;;;9.23;5.53;;;30.70;99.90;;;;;;12514136;28;20496;-35
2023/07/09 15:55:15;;;;;;;9.30;5.85;;;30.60;99.90;;;;;;12509247;28;20033;-35
2023/07/09 16:01:18;;;;;;;11.63;5.57;;;30.50;99.90;;;;;;12515934;28;20132;-35
2023/07/09 16:07:23;;;;;;;;;;;30.40;99.90;;;;;;12519166;28;20045;-36
2023/07/09 16:13:26;;;;;;;10.13;5.40;;;30.30;99.90;;;;;;12527277;28;19932;-35
2023/07/09 16:19:30;;;;;;;9.52;5.53;;;30.10;99.90;;;;;;12507834;28;20753;-35
2023/07/09 16:25:35;;;;;;;10.02;5.60;;;29.90;99.90;;;;;;12517131;28;20048;-36
2023/07/09 16:31:37;;;;;;;8.85;5.40;;;29.70;99.90;;;;;;12516040;28;20049;-36
2023/07/09 16:37:39;;;;;;;11.50;5.22;;;29.50;99.90;;;;;;12520762;28;20052;-36
2023/07/09 16:43:41;;;;;;;8.40;5.88;;;29.30;99.90;;;;;;12512333;28;20045;-35
2023/07/09 16:49:44;;;;;;;;;;;29.00;99.90;;;;;;12503443;28;20049;-35
2023/07/09 16:55:47;;;;;;;12.23;5.83;;;28.70;99.90;;;;;;12496247;28;19925;-36
2023/07/09 17:01:50;;;;;;;10.65;5.65;;;28.60;99.90;;;;;;12506500;28;20412;-36
2023/07/09 17:07:52;;;;;;;10.95;5.88;;;28.30;99.90;;;;;;12521323;28;20056;-35
2023/07/09 17:13:54;;;;;;;9.82;5.82;;;28.20;99.90;;;;;;12505129;28;20056;-35
2023/07/09 17:19:56;;;;;;;9.60;5.97;;;28.20;99.90;;;;;;12516824;28;20046;-36
2023/07/09 17:25:59;;;;;;;9.53;6.07;;;28.10;99.90;;;;;;12515482;28;20136;-35
2023/07/09 17:32:01;;;;;;;17.40;5.53;;;28.10;99.90;;;;;;12491674;28;20303;-35
2023/07/09 17:38:05;;;;;;;11.93;4.60;;;27.80;99.90;;;;;;12524694;28;20378;-35
2023/07/09 17:44:16;;;;;;;7.22;3.22;;;27.00;99.90;;;;;;12516839;28;20073;-35
2023/07/09 17:50:22;;;;;;;14.77;4.82;;;26.60;99.90;;;;;;12516931;28;20041;-35
2023/07/09 17:56:25;;;;;;;13.38;4.90;;;25.10;99.90;;;;;;12513881;28;20063;-35
2023/07/09 18:02:27;;;;;;;;;;;23.60;99.90;;;;;;12512472;28;20140;-35
2023/07/09 18:08:30;;;;;;;11.05;4.38;;;22.80;99.90;;;;;;12513276;28;19925;-35
2023/07/09 18:14:37;;;;;;;11.43;4.00;;;22.20;99.90;;;;;;12517256;28;20495;-34
2023/07/09 18:20:42;;;;;;;11.95;4.28;;;22.10;99.90;;;;;;12505241;28;20057;-35
2023/07/09 18:26:44;;;;;;;14.55;4.97;;;21.90;99.90;;;;;;12511535;28;20060;-35
2023/07/09 18:32:49;;;;;;;16.58;6.13;;;21.80;99.90;;;;;;12494898;28;20045;-35
2023/07/09 18:38:51;;;;;;;8.35;4.45;;;21.60;99.90;;;;;;12511075;28;20560;-35
2023/07/09 18:44:53;;;;;;;10.98;4.40;;;21.40;99.90;;;;;;12510534;28;20045;-34
2023/07/09 18:50:57;;;;;;;7.00;4.00;;;21.30;99.90;;;;;;12522077;28;20072;-35
2023/07/09 18:56:58;;;;;;;7.80;3.80;;;21.40;99.90;;;;;;12528068;28;20511;-35
2023/07/09 19:03:00;;;;;;;8.23;3.90;;;21.40;99.90;;;;;;12510640;28;20552;-35
2023/07/09 19:09:13;;;;;;;7.95;3.80;;;21.50;99.90;;;;;;12516824;28;20524;-34
2023/07/09 19:15:16;;;;;;;7.27;3.90;;;21.60;99.90;;;;;;12504030;28;20433;-35
2023/07/09 19:21:18;;;;;;;11.63;4.18;;;21.70;99.90;;;;;;12527201;28;20051;-35
2023/07/09 19:27:20;;;;;;;6.88;3.33;;;21.60;99.90;;;;;;12533986;28;20489;-35
2023/07/09 19:33:25;;;;;;;7.50;3.00;;;21.60;99.90;;;;;;12521817;28;20482;-35
2023/07/09 19:39:35;;;;;;;9.77;4.10;;;22.00;99.90;;;;;;12528823;28;20042;-35
2023/07/09 19:45:40;;;;;;;12.15;3.58;;;22.10;99.90;;;;;;12521238;28;20050;-35
2023/07/09 19:51:42;;;;;;;8.07;3.25;;;21.80;99.90;;;;;;12537443;28;20063;-35
2023/07/09 19:57:45;;;;;;;7.10;3.85;;;21.60;99.90;;;;;;12520456;28;20520;-35
2023/07/09 20:03:47;;;;;;;13.00;4.87;;;21.50;99.90;;;;;;12536117;28;20129;-35
2023/07/09 20:09:49;;;;;;;6.68;4.00;;;21.70;99.90;;;;;;12531311;28;20111;-35
2023/07/09 20:15:51;;;;;;;7.45;4.03;;;21.70;99.90;;;;;;12507165;28;20044;-35
2023/07/09 20:21:53;;;;;;;12.13;4.78;;;21.80;99.90;;;;;;12521390;28;20050;-35
2023/07/09 20:27:55;;;;;;;9.70;4.47;;;22.00;99.90;;;;;;12509796;28;20041;-35
2023/07/09 20:34:21;;;;;;;8.27;4.30;;;22.10;99.90;;;;;;12517521;28;20115;-37
2023/07/09 20:40:23;;;;;;;10.48;4.45;;;22.10;99.90;;;;;;12531374;28;20037;-35
2023/07/09 20:46:25;;;;;;;9.43;4.55;;;22.10;99.90;;;;;;12513797;28;20049;-35
2023/07/09 20:52:27;;;;;;;11.60;4.53;;;22.00;99.90;;;;;;12515636;28;20037;-35
2023/07/09 20:58:29;;;;;;;8.73;5.00;;;22.00;99.90;;;;;;12522362;28;20061;-35
2023/07/09 21:04:31;;;;;;;9.40;4.68;;;21.90;99.90;;;;;;12542722;28;20044;-34
2023/07/09 21:10:33;;;;;;;9.75;4.32;;;21.80;99.90;;;;;;12521274;28;20045;-35
2023/07/09 21:16:35;;;;;;;10.48;4.70;;;21.60;99.90;;;;;;12514578;28;20852;-34
2023/07/09 21:22:37;;;;;;;8.30;4.47;;;21.50;99.90;;;;;;12516458;28;20060;-34
2023/07/09 21:28:39;;;;;;;7.32;4.13;;;21.60;99.90;;;;;;12510602;28;20053;-34
2023/07/09 21:34:42;;;;;;;6.88;4.63;;;21.60;99.90;;;;;;12528710;28;20056;-34
2023/07/09 21:40:44;;;;;;;8.40;4.30;;;21.60;99.90;;;;;;12517876;28;20485;-35
2023/07/09 21:46:47;;;;;;;9.48;4.90;;;21.60;99.90;;;;;;12507274;28;20057;-34
2023/07/09 21:52:49;;;;;;;12.98;4.80;;;21.10;99.90;;;;;;12515525;28;20053;-34
2023/07/09 21:58:51;;;;;;;9.63;5.38;;;20.80;99.90;;;;;;12528372;28;20376;-34
2023/07/09 22:04:54;;;;;;;11.40;6.07;;;20.60;99.90;;;;;;12507289;28;20053;-34
2023/07/09 22:10:56;;;;;;;8.85;5.43;;;20.60;99.90;;;;;;12500411;28;20049;-35
2023/07/09 22:16:58;;;;;;;15.57;5.10;;;20.80;99.90;;;;;;12529278;28;20050;-35
2023/07/09 22:23:00;;;;;;;15.43;5.47;;;20.60;99.90;;;;;;12512663;28;20498;-35
2023/07/09 22:29:02;;;;;;;13.85;5.05;;;20.70;99.90;;;;;;12525237;28;20386;-34
2023/07/09 22:35:10;;;;;;;10.23;5.03;;;20.70;99.90;;;;;;12513625;28;20413;-35
2023/07/09 22:41:12;;;;;;;11.98;4.75;;;20.70;99.90;;;;;;12512759;28;20566;-39
2023/07/09 22:47:18;;;;;;;10.82;4.65;;;20.80;99.90;;;;;;12516778;28;20050;-35
2023/07/09 22:53:22;;;;;;;8.20;5.18;;;20.50;99.90;;;;;;12527689;28;20045;-35
2023/07/09 22:59:24;;;;;;;9.57;4.80;;;20.30;99.90;;;;;;12517130;28;20044;-35
2023/07/09 23:05:26;;;;;;;11.68;4.88;;;20.30;99.90;;;;;;12522983;28;20049;-35
2023/07/09 23:11:32;;;;;;;9.07;5.07;;;20.40;99.90;;;;;;12502234;28;20357;-35
2023/07/09 23:17:34;;;;;;;14.15;4.80;;;20.50;99.90;;;;;;12519167;28;20045;-35
2023/07/09 23:23:36;;;;;;;11.57;5.03;;;20.70;99.90;;;;;;12520081;28;20053;-35
2023/07/09 23:29:38;;;;;;;11.13;5.10;;;20.60;99.90;;;;;;12517365;28;20052;-35
2023/07/09 23:35:40;;;;;;;9.00;4.90;;;20.50;99.90;;;;;;12526546;28;20060;-34
2023/07/09 23:41:45;;;;;;;15.27;4.43;;;20.60;99.90;;;;;;12520392;28;20057;-35
2023/07/09 23:47:51;;;;;;;13.07;4.47;;;20.80;99.90;;;;;;12511664;28;20136;-35
2023/07/09 23:53:53;;;;;;;19.70;5.60;;;20.80;99.90;;;;;;12530487;28;20045;-35
2023/07/09 23:59:55;;;;;;;13.70;6.10;;;20.60;99.90;;;;;;12515382;28;20058;-35
